Time;durP1;ratioP1;P1;durP2;ratioP2;P2;SDS_P1;SDS_P2;PMS_P1;PMS_P2;Temp;Humidity;BMP_temperature;BMP_pressure;BME280_temperature;BME280_humidity;BME280_pressure;Samples;Min_cycle;Max_cycle;Signal;HPM_P1;HPM_P2
2022/05/22 00:01:41;;;;;;;15.38;4.32;;;;;;;;;;5102140;28;20050;-81
2022/05/22 00:04:08;;;;;;;16.10;4.95;;;;;;;;;;5105733;28;20419;-81
2022/05/22 00:06:34;;;;;;;9.50;5.05;;;;;;;;;;5107488;28;20059;-77
2022/05/22 00:09:00;;;;;;;11.75;5.07;;;;;;;;;;5107401;28;20044;-81
2022/05/22 00:11:26;;;;;;;12.40;4.70;;;;;;;;;;5107495;28;20067;-82
2022/05/22 00:13:52;;;;;;;13.75;5.18;;;;;;;;;;5106269;28;20048;-82
2022/05/22 00:16:37;;;;;;;17.88;6.28;;;;;;;;;;5088251;28;20036;-81
2022/05/22 00:19:04;;;;;;;15.32;4.93;;;;;;;;;;5106800;27;20082;-82
2022/05/22 00:21:30;;;;;;;9.25;4.20;;;;;;;;;;5104940;27;20047;-81
2022/05/22 00:23:56;;;;;;;11.52;4.20;;;;;;;;;;5106220;28;20031;-81
2022/05/22 00:26:22;;;;;;;21.08;4.85;;;;;;;;;;5107593;28;20062;-83
2022/05/22 00:28:48;;;;;;;12.60;4.53;;;;;;;;;;5116031;28;20085;-79
2022/05/22 00:31:15;;;;;;;15.27;4.80;;;;;;;;;;5126312;28;20095;-80
2022/05/22 00:33:41;;;;;;;14.75;4.68;;;;;;;;;;5125876;28;20031;-79
2022/05/22 00:36:07;;;;;;;12.27;4.50;;;;;;;;;;5112994;28;20086;-82
2022/05/22 00:38:34;;;;;;;10.00;4.55;;;;;;;;;;5090137;28;20067;-81
2022/05/22 00:41:00;;;;;;;10.93;4.90;;;;;;;;;;5122755;28;20113;-80
2022/05/22 00:43:43;;;;;;;16.42;5.13;;;;;;;;;;5122355;28;20144;-81
2022/05/22 00:46:11;;;;;;;10.43;4.93;;;;;;;;;;5123359;28;20027;-79
2022/05/22 00:48:38;;;;;;;11.60;4.93;;;;;;;;;;5124689;28;20260;-82
2022/05/22 00:51:08;;;;;;;15.60;4.70;;;;;;;;;;5123678;28;20040;-79
2022/05/22 00:53:36;;;;;;;13.38;4.43;;;;;;;;;;5113896;28;20044;-82
2022/05/22 00:56:06;;;;;;;17.02;5.93;;;;;;;;;;5107305;28;20097;-83
2022/05/22 00:58:33;;;;;;;14.85;5.22;;;;;;;;;;5106546;28;20039;-80
2022/05/22 01:00:59;;;;;;;15.70;5.20;;;;;;;;;;5107212;28;20039;-81
2022/05/22 01:03:26;;;;;;;15.68;4.63;;;;;;;;;;5089537;28;20390;-82
2022/05/22 01:05:53;;;;;;;8.25;5.15;;;;;;;;;;5105333;28;20082;-83
2022/05/22 01:08:20;;;;;;;16.58;5.90;;;;;;;;;;5105190;28;20126;-80
2022/05/22 01:10:47;;;;;;;12.15;5.60;;;;;;;;;;5106639;28;20043;-83
2022/05/22 01:13:15;;;;;;;15.05;5.85;;;;;;;;;;5104583;28;20116;-82
2022/05/22 01:15:41;;;;;;;11.93;5.88;;;;;;;;;;5107239;28;20437;-82
2022/05/22 01:18:07;;;;;;;18.13;5.82;;;;;;;;;;5105463;28;20047;-82
2022/05/22 01:20:33;;;;;;;19.63;7.55;;;;;;;;;;5106103;28;20047;-79
2022/05/22 01:22:59;;;;;;;13.35;6.20;;;;;;;;;;5106327;28;20047;-79
2022/05/22 01:25:25;;;;;;;13.95;5.85;;;;;;;;;;5106297;28;20039;-82
2022/05/22 01:27:53;;;;;;;17.33;5.70;;;;;;;;;;5106016;28;20040;-83
2022/05/22 01:30:21;;;;;;;17.48;6.07;;;;;;;;;;5103690;28;20158;-82
2022/05/22 01:32:48;;;;;;;13.40;5.40;;;;;;;;;;5107464;28;20046;-82
2022/05/22 01:35:16;;;;;;;13.50;5.75;;;;;;;;;;5105687;28;20048;-83
2022/05/22 01:37:42;;;;;;;14.32;6.53;;;;;;;;;;5105191;28;20042;-81
2022/05/22 01:40:09;;;;;;;17.85;6.93;;;;;;;;;;5106139;28;20050;-84
2022/05/22 01:42:36;;;;;;;16.42;6.40;;;;;;;;;;5101506;28;21558;-83
2022/05/22 01:45:03;;;;;;;13.02;5.65;;;;;;;;;;5104876;28;20051;-82
2022/05/22 01:47:32;;;;;;;15.38;6.53;;;;;;;;;;5072183;28;20039;-81
2022/05/22 01:49:58;;;;;;;14.27;6.43;;;;;;;;;;5085378;28;20143;-81
2022/05/22 01:52:24;;;;;;;19.40;7.35;;;;;;;;;;5104874;28;20502;-83
2022/05/22 01:54:50;;;;;;;16.92;6.65;;;;;;;;;;5102912;28;20035;-82
2022/05/22 01:57:17;;;;;;;11.32;6.07;;;;;;;;;;5097519;28;20043;-80
2022/05/22 01:59:43;;;;;;;15.52;6.75;;;;;;;;;;5101542;28;20048;-81
2022/05/22 02:02:09;;;;;;;13.18;5.90;;;;;;;;;;5104228;28;20082;-83
2022/05/22 02:04:35;;;;;;;13.35;6.80;;;;;;;;;;5103871;28;20088;-82
2022/05/22 02:09:46;;;;;;;19.00;7.38;;;;;;;;;;5105431;28;20921;-83
2022/05/22 02:12:12;;;;;;;19.35;6.22;;;;;;;;;;5109389;28;20606;-82
2022/05/22 02:14:38;;;;;;;11.73;7.10;;;;;;;;;;5107746;28;20138;-83
2022/05/22 02:17:05;;;;;;;17.92;6.88;;;;;;;;;;5109233;27;20039;-80
2022/05/22 02:19:31;;;;;;;17.70;6.35;;;;;;;;;;5105850;27;20046;-82
2022/05/22 02:21:57;;;;;;;16.88;6.15;;;;;;;;;;5107797;28;20050;-81
2022/05/22 02:24:23;;;;;;;15.18;6.45;;;;;;;;;;5107479;27;20039;-81
2022/05/22 02:26:49;;;;;;;16.33;6.47;;;;;;;;;;5105864;28;20040;-80
2022/05/22 02:29:16;;;;;;;16.95;7.13;;;;;;;;;;5108997;28;20121;-80
2022/05/22 02:31:42;;;;;;;17.95;7.72;;;;;;;;;;5109709;28;20184;-81
2022/05/22 02:34:08;;;;;;;19.70;7.85;;;;;;;;;;5107851;28;20044;-78
2022/05/22 02:36:34;;;;;;;15.88;7.30;;;;;;;;;;5073982;28;20344;-82
2022/05/22 02:39:00;;;;;;;19.70;7.65;;;;;;;;;;5108426;28;20040;-81
2022/05/22 02:41:26;;;;;;;21.67;9.05;;;;;;;;;;5074919;28;20066;-82
2022/05/22 02:43:52;;;;;;;22.10;8.85;;;;;;;;;;5075130;28;20048;-80
2022/05/22 02:46:19;;;;;;;22.38;8.80;;;;;;;;;;5089290;28;20064;-82
2022/05/22 02:48:46;;;;;;;21.50;9.10;;;;;;;;;;5087564;28;20051;-77
2022/05/22 02:51:19;;;;;;;15.10;9.13;;;;;;;;;;5087243;28;20050;-81
2022/05/22 02:53:45;;;;;;;18.13;8.73;;;;;;;;;;5109509;28;20350;-79
2022/05/22 02:56:13;;;;;;;14.93;8.65;;;;;;;;;;5108381;28;20144;-82
2022/05/22 02:58:39;;;;;;;11.90;8.15;;;;;;;;;;5108597;28;20043;-81
2022/05/22 03:01:05;;;;;;;19.33;8.32;;;;;;;;;;5108024;28;20051;-78
2022/05/22 03:03:32;;;;;;;19.90;9.23;;;;;;;;;;5110728;28;20039;-82
2022/05/22 03:08:43;;;;;;;22.55;10.07;;;;;;;;;;5109812;28;20039;-80
2022/05/22 03:11:09;;;;;;;19.20;9.43;;;;;;;;;;5111742;28;20040;-83
2022/05/22 03:13:36;;;;;;;17.85;8.70;;;;;;;;;;5109100;28;20067;-82
2022/05/22 03:16:02;;;;;;;15.25;9.13;;;;;;;;;;5128602;28;20040;-82
2022/05/22 03:18:28;;;;;;;21.05;10.77;;;;;;;;;;5127849;28;20043;-78
2022/05/22 03:20:54;;;;;;;18.15;8.32;;;;;;;;;;5111816;28;20051;-82
2022/05/22 03:23:20;;;;;;;14.35;8.82;;;;;;;;;;5109504;28;20044;-81
2022/05/22 03:25:47;;;;;;;20.73;9.02;;;;;;;;;;5108438;28;20158;-83
2022/05/22 03:28:13;;;;;;;20.83;9.05;;;;;;;;;;5107843;28;20043;-80
2022/05/22 03:30:39;;;;;;;20.17;9.23;;;;;;;;;;5108390;28;20463;-81
2022/05/22 03:33:05;;;;;;;15.65;8.73;;;;;;;;;;5108982;28;20118;-82
2022/05/22 03:35:32;;;;;;;17.85;8.70;;;;;;;;;;5107095;28;20128;-81
2022/05/22 03:37:58;;;;;;;18.55;8.65;;;;;;;;;;5107225;27;20075;-82
2022/05/22 03:40:25;;;;;;;18.98;8.30;;;;;;;;;;5107411;28;20036;-81
2022/05/22 03:42:51;;;;;;;20.25;8.88;;;;;;;;;;5090549;28;20039;-81
2022/05/22 03:45:17;;;;;;;20.52;8.93;;;;;;;;;;5107789;28;20032;-82
2022/05/22 03:47:43;;;;;;;18.90;8.85;;;;;;;;;;5109239;28;20134;-79
2022/05/22 03:50:10;;;;;;;16.67;9.05;;;;;;;;;;5106518;28;20089;-80
2022/05/22 03:52:37;;;;;;;19.70;9.07;;;;;;;;;;5089979;28;20086;-79
2022/05/22 03:55:05;;;;;;;15.52;9.57;;;;;;;;;;5106843;28;20035;-82
2022/05/22 03:57:32;;;;;;;14.88;8.93;;;;;;;;;;5106559;28;20061;-82
2022/05/22 03:59:58;;;;;;;15.60;9.18;;;;;;;;;;5107415;28;20522;-83
2022/05/22 04:02:24;;;;;;;18.13;10.02;;;;;;;;;;5089272;28;20059;-80
2022/05/22 04:04:50;;;;;;;20.02;9.68;;;;;;;;;;5105394;28;20052;-81
2022/05/22 04:07:16;;;;;;;16.42;8.85;;;;;;;;;;5106473;28;20056;-82
2022/05/22 04:09:43;;;;;;;18.27;9.52;;;;;;;;;;5106360;28;20134;-81
2022/05/22 04:12:11;;;;;;;14.55;8.93;;;;;;;;;;5089584;28;20053;-81
2022/05/22 04:14:39;;;;;;;14.63;8.52;;;;;;;;;;5106174;28;20512;-81
2022/05/22 04:17:05;;;;;;;15.82;10.25;;;;;;;;;;5090291;28;20043;-82
2022/05/22 04:19:31;;;;;;;15.10;8.82;;;;;;;;;;5105732;28;20484;-82
2022/05/22 04:21:58;;;;;;;22.73;10.02;;;;;;;;;;5089695;28;20050;-82
2022/05/22 04:27:10;;;;;;;16.23;9.27;;;;;;;;;;5107005;28;20054;-82
2022/05/22 04:29:36;;;;;;;21.15;9.77;;;;;;;;;;5106259;28;20091;-83
2022/05/22 04:32:03;;;;;;;17.10;9.55;;;;;;;;;;5105816;28;20502;-81
2022/05/22 04:34:30;;;;;;;15.10;9.93;;;;;;;;;;5106090;28;20046;-80
2022/05/22 04:36:56;;;;;;;19.38;10.40;;;;;;;;;;5106388;27;20542;-82
2022/05/22 04:39:22;;;;;;;19.92;9.90;;;;;;;;;;5106840;28;20177;-82
2022/05/22 04:41:48;;;;;;;18.02;9.43;;;;;;;;;;5106919;28;20044;-82
2022/05/22 04:44:14;;;;;;;12.30;8.70;;;;;;;;;;5106102;28;20159;-81
2022/05/22 04:46:40;;;;;;;14.20;8.80;;;;;;;;;;5106468;28;20085;-83
2022/05/22 04:49:06;;;;;;;12.43;7.75;;;;;;;;;;5088730;28;20046;-82
2022/05/22 04:51:32;;;;;;;12.05;8.32;;;;;;;;;;5088060;28;20636;-84
2022/05/22 04:53:58;;;;;;;17.88;8.18;;;;;;;;;;5105466;28;20055;-81
2022/05/22 04:56:25;;;;;;;14.40;8.60;;;;;;;;;;5073173;28;20040;-81
2022/05/22 04:58:51;;;;;;;13.50;7.80;;;;;;;;;;5105322;28;20495;-78
2022/05/22 05:01:17;;;;;;;16.63;8.45;;;;;;;;;;5106331;28;20457;-81
2022/05/22 05:03:43;;;;;;;15.15;8.27;;;;;;;;;;5101977;28;20053;-78
2022/05/22 05:06:09;;;;;;;13.40;9.13;;;;;;;;;;5105527;28;20055;-81
2022/05/22 05:08:35;;;;;;;20.95;9.82;;;;;;;;;;5106656;28;20047;-83
2022/05/22 05:11:02;;;;;;;24.73;10.15;;;;;;;;;;5105181;28;20043;-82
2022/05/22 05:13:28;;;;;;;21.85;11.52;;;;;;;;;;5106412;28;20126;-82
2022/05/22 05:16:13;;;;;;;21.60;10.85;;;;;;;;;;5104854;28;20097;-82
2022/05/22 05:18:40;;;;;;;21.05;10.63;;;;;;;;;;5104939;28;20059;-81
2022/05/22 05:21:08;;;;;;;22.70;10.98;;;;;;;;;;5105859;28;20126;-83
2022/05/22 05:23:34;;;;;;;22.80;11.30;;;;;;;;;;5105987;28;20146;-81
2022/05/22 05:26:00;;;;;;;26.75;11.25;;;;;;;;;;5106832;28;20518;-83
2022/05/22 05:28:26;;;;;;;26.02;11.00;;;;;;;;;;5105143;28;20338;-82
2022/05/22 05:30:52;;;;;;;18.20;11.07;;;;;;;;;;5107798;28;20039;-83
2022/05/22 05:33:18;;;;;;;27.00;10.68;;;;;;;;;;5105025;28;20078;-82
2022/05/22 05:35:45;;;;;;;25.67;9.77;;;;;;;;;;5107341;28;20048;-82
2022/05/22 05:38:11;;;;;;;22.13;9.40;;;;;;;;;;5106677;28;20043;-83
2022/05/22 05:40:37;;;;;;;20.40;10.02;;;;;;;;;;5104322;28;20085;-83
2022/05/22 05:43:03;;;;;;;17.85;9.88;;;;;;;;;;5106183;28;20098;-84
2022/05/22 05:45:30;;;;;;;26.95;11.18;;;;;;;;;;5105214;28;20046;-81
2022/05/22 05:47:57;;;;;;;21.25;10.38;;;;;;;;;;5105717;28;20040;-82
2022/05/22 05:50:25;;;;;;;22.98;10.60;;;;;;;;;;5125208;27;20410;-81
2022/05/22 05:52:52;;;;;;;20.08;10.25;;;;;;;;;;5148460;27;20522;-80
2022/05/22 05:55:19;;;;;;;22.23;9.90;;;;;;;;;;5128468;28;20065;-83
2022/05/22 05:57:45;;;;;;;25.90;9.77;;;;;;;;;;5123052;27;20036;-83
2022/05/22 06:00:13;;;;;;;23.52;9.93;;;;;;;;;;5112994;28;20051;-79
2022/05/22 06:02:39;;;;;;;22.00;10.27;;;;;;;;;;5109255;28;20035;-83
2022/05/22 06:05:05;;;;;;;21.50;10.63;;;;;;;;;;5098566;28;20109;-81
2022/05/22 06:07:31;;;;;;;29.48;10.20;;;;;;;;;;5088331;28;20052;-78
2022/05/22 06:10:00;;;;;;;25.13;9.50;;;;;;;;;;5104176;28;20578;-82
2022/05/22 06:12:27;;;;;;;22.25;10.23;;;;;;;;;;5108835;27;20185;-81
2022/05/22 06:14:53;;;;;;;23.10;10.40;;;;;;;;;;5096478;28;20415;-83
2022/05/22 06:17:19;;;;;;;20.30;9.35;;;;;;;;;;5098672;27;20043;-83
2022/05/22 06:19:54;;;;;;;24.42;9.18;;;;;;;;;;5110240;27;20043;-81
2022/05/22 06:22:20;;;;;;;20.40;8.35;;;;;;;;;;5110006;28;20399;-82
2022/05/22 06:24:46;;;;;;;27.58;8.82;;;;;;;;;;5109404;28;20106;-82
2022/05/22 06:27:13;;;;;;;22.83;8.82;;;;;;;;;;5110144;28;20046;-80
2022/05/22 06:29:42;;;;;;;25.40;10.05;;;;;;;;;;5108432;27;20070;-78
2022/05/22 06:32:11;;;;;;;23.20;8.63;;;;;;;;;;5108121;28;20047;-79
2022/05/22 06:34:41;;;;;;;18.15;8.05;;;;;;;;;;5088775;28;20044;-82
2022/05/22 06:37:07;;;;;;;21.98;8.70;;;;;;;;;;5103388;27;20043;-80
2022/05/22 06:39:50;;;;;;;16.45;6.88;;;;;;;;;;5129997;27;20130;-79
2022/05/22 06:42:25;;;;;;;20.88;8.15;;;;;;;;;;5125832;27;20510;-82
2022/05/22 06:44:51;;;;;;;20.35;7.22;;;;;;;;;;5107165;28;20528;-83
2022/05/22 06:47:18;;;;;;;11.68;5.82;;;;;;;;;;5094773;28;20111;-80
2022/05/22 06:49:44;;;;;;;14.60;6.57;;;;;;;;;;5108752;27;20384;-81
2022/05/22 06:52:10;;;;;;;18.67;6.20;;;;;;;;;;5106590;28;20043;-81
2022/05/22 06:54:36;;;;;;;16.23;6.20;;;;;;;;;;5116110;27;20049;-79
2022/05/22 06:57:02;;;;;;;14.90;5.88;;;;;;;;;;5109925;27;20167;-84
2022/05/22 06:59:28;;;;;;;13.95;5.28;;;;;;;;;;5088603;28;20117;-85
2022/05/22 07:01:54;;;;;;;13.65;6.70;;;;;;;;;;5089346;27;20522;-83
2022/05/22 07:04:21;;;;;;;20.77;5.55;;;;;;;;;;5090272;28;20109;-81
2022/05/22 07:06:48;;;;;;;10.82;4.45;;;;;;;;;;5115368;27;20179;-84
2022/05/22 07:09:15;;;;;;;12.50;4.40;;;;;;;;;;5127214;27;20031;-79
2022/05/22 07:11:41;;;;;;;13.82;5.03;;;;;;;;;;5130015;27;20043;-83
2022/05/22 07:14:08;;;;;;;12.30;3.72;;;;;;;;;;5128855;27;20126;-81
2022/05/22 07:16:38;;;;;;;11.57;4.65;;;;;;;;;;5119040;27;20043;-82
2022/05/22 07:19:06;;;;;;;13.40;4.90;;;;;;;;;;5109121;28;20432;-81
2022/05/22 07:21:32;;;;;;;13.77;5.93;;;;;;;;;;5107855;28;20043;-80
2022/05/22 07:23:59;;;;;;;13.57;5.30;;;;;;;;;;5109214;28;20437;-86
2022/05/22 07:26:26;;;;;;;9.55;4.70;;;;;;;;;;5108150;28;20089;-79
2022/05/22 07:28:52;;;;;;;12.43;5.40;;;;;;;;;;5108980;28;20491;-83
2022/05/22 07:31:20;;;;;;;16.42;5.43;;;;;;;;;;5107867;28;20407;-84
2022/05/22 07:33:46;;;;;;;14.73;5.00;;;;;;;;;;5108137;27;20130;-83
2022/05/22 07:36:12;;;;;;;14.40;5.47;;;;;;;;;;5107938;28;20047;-84
2022/05/22 07:38:38;;;;;;;16.20;5.57;;;;;;;;;;5107375;28;21077;-84
2022/05/22 07:41:04;;;;;;;12.27;4.10;;;;;;;;;;5106614;28;20051;-82
2022/05/22 07:43:30;;;;;;;15.98;4.00;;;;;;;;;;5058900;28;20486;-82
2022/05/22 07:45:57;;;;;;;15.15;4.22;;;;;;;;;;5086645;28;20093;-83
2022/05/22 07:48:29;;;;;;;11.27;3.47;;;;;;;;;;5090347;28;20071;-85
2022/05/22 07:50:57;;;;;;;15.13;3.90;;;;;;;;;;5109023;28;20214;-84
2022/05/22 07:53:23;;;;;;;12.43;3.38;;;;;;;;;;5088709;28;20047;-83
2022/05/22 07:55:49;;;;;;;12.93;3.28;;;;;;;;;;5108181;28;20047;-83
2022/05/22 07:58:16;;;;;;;11.50;3.33;;;;;;;;;;5105546;28;20127;-82
2022/05/22 08:00:45;;;;;;;11.73;3.80;;;;;;;;;;5106687;28;20031;-85
2022/05/22 08:03:12;;;;;;;9.13;3.05;;;;;;;;;;5107660;28;20044;-85
2022/05/22 08:05:39;;;;;;;16.83;4.03;;;;;;;;;;5105785;27;20055;-84
2022/05/22 08:08:05;;;;;;;16.73;4.00;;;;;;;;;;5107629;28;20054;-84
2022/05/22 08:10:31;;;;;;;12.02;4.28;;;;;;;;;;5107823;28;20047;-84
2022/05/22 08:12:57;;;;;;;12.23;3.65;;;;;;;;;;5108583;28;20165;-85
2022/05/22 08:15:25;;;;;;;14.90;4.38;;;;;;;;;;5106717;28;20622;-83
2022/05/22 08:17:51;;;;;;;12.63;3.75;;;;;;;;;;5109310;28;20036;-82
2022/05/22 08:20:18;;;;;;;12.20;4.05;;;;;;;;;;5107411;28;20059;-83
2022/05/22 08:22:45;;;;;;;11.45;3.40;;;;;;;;;;5108314;28;20051;-83
2022/05/22 08:25:15;;;;;;;10.40;3.80;;;;;;;;;;5109075;28;20043;-85
2022/05/22 08:27:41;;;;;;;10.73;4.10;;;;;;;;;;5108771;28;20039;-78
2022/05/22 08:30:09;;;;;;;8.90;3.25;;;;;;;;;;5120977;27;20050;-83
2022/05/22 08:32:38;;;;;;;11.90;3.67;;;;;;;;;;5147128;27;20031;-80
2022/05/22 08:35:05;;;;;;;14.23;4.35;;;;;;;;;;5150565;27;20082;-81
2022/05/22 08:37:32;;;;;;;11.15;4.25;;;;;;;;;;5144161;27;20099;-83
2022/05/22 08:39:59;;;;;;;11.65;3.65;;;;;;;;;;5130322;27;20054;-82
2022/05/22 08:42:36;;;;;;;18.95;4.65;;;;;;;;;;5125325;27;20035;-81
2022/05/22 08:45:05;;;;;;;12.65;3.72;;;;;;;;;;5107746;28;20043;-81
2022/05/22 08:47:57;;;;;;;12.25;4.50;;;;;;;;;;5107428;28;20038;-82
2022/05/22 08:50:24;;;;;;;11.60;4.30;;;;;;;;;;5106875;28;20453;-81
2022/05/22 08:53:00;;;;;;;12.85;4.10;;;;;;;;;;5108398;28;20092;-85
2022/05/22 09:01:15;;;;;;;14.57;4.25;;;;;;;;;;5103693;28;20055;-84
2022/05/22 09:03:56;;;;;;;14.18;4.68;;;;;;;;;;5106178;28;20039;-81
2022/05/22 09:06:27;;;;;;;14.13;4.53;;;;;;;;;;5107491;28;20057;-80
2022/05/22 09:08:53;;;;;;;11.32;4.25;;;;;;;;;;5104358;28;20040;-81
2022/05/22 09:11:19;;;;;;;14.57;4.30;;;;;;;;;;5106960;28;20040;-84
2022/05/22 09:13:48;;;;;;;15.52;4.00;;;;;;;;;;5105490;28;20487;-81
2022/05/22 09:16:31;;;;;;;11.85;3.45;;;;;;;;;;5107068;28;20039;-83
2022/05/22 09:19:01;;;;;;;10.23;3.25;;;;;;;;;;5107066;28;20048;-83
2022/05/22 09:21:31;;;;;;;10.13;3.30;;;;;;;;;;5108119;28;20052;-83
2022/05/22 09:24:10;;;;;;;11.32;3.20;;;;;;;;;;5110961;28;20050;-85
2022/05/22 09:26:42;;;;;;;9.93;3.28;;;;;;;;;;5109049;28;20036;-82
2022/05/22 09:29:14;;;;;;;10.63;2.72;;;;;;;;;;5109853;28;20909;-83
2022/05/22 09:32:03;;;;;;;13.50;3.47;;;;;;;;;;5110813;28;20492;-82
2022/05/22 09:34:35;;;;;;;9.98;3.60;;;;;;;;;;5110234;28;20054;-82
2022/05/22 09:37:21;;;;;;;12.18;3.85;;;;;;;;;;5109807;28;20044;-82
2022/05/22 09:39:50;;;;;;;11.27;2.88;;;;;;;;;;5110168;28;20071;-82
2022/05/22 09:42:28;;;;;;;12.18;3.35;;;;;;;;;;5110338;28;20039;-83
2022/05/22 09:45:07;;;;;;;10.65;3.25;;;;;;;;;;5110842;28;20071;-83
2022/05/22 09:47:42;;;;;;;14.32;3.10;;;;;;;;;;5110248;28;20052;-82
2022/05/22 09:50:08;;;;;;;11.45;3.30;;;;;;;;;;5112129;28;20044;-81
2022/05/22 09:52:53;;;;;;;10.25;3.10;;;;;;;;;;5109262;28;20144;-79
2022/05/22 09:55:37;;;;;;;9.98;3.00;;;;;;;;;;5110063;28;20040;-83
2022/05/22 09:58:27;;;;;;;8.85;3.08;;;;;;;;;;5109911;28;20051;-80
2022/05/22 10:01:14;;;;;;;10.07;3.35;;;;;;;;;;5108807;28;20062;-85
2022/05/22 10:03:59;;;;;;;10.35;3.17;;;;;;;;;;5109403;28;20108;-84
2022/05/22 10:06:58;;;;;;;11.45;3.13;;;;;;;;;;5089696;28;20056;-89
2022/05/22 10:09:29;;;;;;;10.23;3.40;;;;;;;;;;5046600;28;20060;-86
2022/05/22 10:11:55;;;;;;;13.07;3.13;;;;;;;;;;5090275;28;20131;-86
2022/05/22 10:14:31;;;;;;;9.65;2.80;;;;;;;;;;5090713;28;20461;-85
2022/05/22 10:17:03;;;;;;;11.40;2.83;;;;;;;;;;5090338;28;20061;-84
2022/05/22 10:19:48;;;;;;;12.32;3.03;;;;;;;;;;5088270;28;20055;-84
2022/05/22 10:22:21;;;;;;;10.02;2.90;;;;;;;;;;5094051;27;20070;-82
2022/05/22 10:25:26;;;;;;;11.40;3.17;;;;;;;;;;5123925;28;20050;-82
2022/05/22 10:27:55;;;;;;;9.48;2.42;;;;;;;;;;5040857;28;20057;-81
2022/05/22 10:30:27;;;;;;;14.07;3.35;;;;;;;;;;5025014;28;20428;-79
2022/05/22 10:32:57;;;;;;;9.15;2.47;;;;;;;;;;5073943;28;20118;-81
2022/05/22 10:35:33;;;;;;;8.40;2.67;;;;;;;;;;5120335;28;20368;-80
2022/05/22 10:38:05;;;;;;;6.80;2.53;;;;;;;;;;5113669;27;20131;-87
2022/05/22 10:42:44;;;;;;;14.85;2.70;;;;;;;;;;5114502;28;20416;-82
2022/05/22 10:43:17;;;;;;;12.18;2.58;;;;;;;;;;5113914;28;20050;-87
2022/05/22 10:45:43;;;;;;;9.98;2.92;;;;;;;;;;5095056;28;20028;-84
2022/05/22 10:48:11;;;;;;;9.32;2.63;;;;;;;;;;5116527;28;20027;-81
2022/05/22 10:50:38;;;;;;;9.63;2.72;;;;;;;;;;5128956;27;20044;-83
2022/05/22 10:53:21;;;;;;;8.98;2.85;;;;;;;;;;5138804;27;20561;-89
2022/05/22 10:55:52;;;;;;;10.93;2.60;;;;;;;;;;5137932;27;20044;-92
2022/05/22 10:58:29;;;;;;;10.68;2.75;;;;;;;;;;5134034;27;20054;-82
2022/05/22 11:00:56;;;;;;;13.45;3.50;;;;;;;;;;5138780;27;20043;-89
2022/05/22 11:03:27;;;;;;;8.00;2.40;;;;;;;;;;5139273;27;20042;-83
2022/05/22 11:05:53;;;;;;;7.78;2.60;;;;;;;;;;5113108;28;20043;-80
2022/05/22 11:08:49;;;;;;;11.95;2.90;;;;;;;;;;5118779;28;20044;-84
2022/05/22 11:11:18;;;;;;;7.88;2.83;;;;;;;;;;5113637;28;20094;-82
2022/05/22 11:13:45;;;;;;;10.02;4.00;;;;;;;;;;5123919;28;20407;-89
2022/05/22 11:16:18;;;;;;;12.35;4.40;;;;;;;;;;5121826;28;20032;-86
2022/05/22 11:18:45;;;;;;;9.70;2.60;;;;;;;;;;5117368;28;20039;-89
2022/05/22 11:21:11;;;;;;;11.13;2.90;;;;;;;;;;5111629;28;20092;-91
2022/05/22 11:23:46;;;;;;;9.27;3.33;;;;;;;;;;5109885;27;20073;-89
2022/05/22 11:26:15;;;;;;;10.57;3.15;;;;;;;;;;5109060;27;20044;-89
2022/05/22 11:29:04;;;;;;;12.95;3.92;;;;;;;;;;5110529;28;20079;-88
2022/05/22 11:31:30;;;;;;;11.50;2.97;;;;;;;;;;5113838;27;20114;-82
2022/05/22 11:34:05;;;;;;;10.32;3.25;;;;;;;;;;5131050;27;20448;-82
2022/05/22 11:36:43;;;;;;;9.50;3.70;;;;;;;;;;5132516;27;20490;-87
2022/05/22 11:39:22;;;;;;;12.00;2.90;;;;;;;;;;5130065;27;20235;-93
2022/05/22 11:41:48;;;;;;;10.30;3.00;;;;;;;;;;5132110;27;20046;-88
2022/05/22 11:44:17;;;;;;;15.00;3.67;;;;;;;;;;5074846;28;20052;-87
2022/05/22 11:46:49;;;;;;;11.43;3.70;;;;;;;;;;5088734;28;20093;-90
2022/05/22 11:49:19;;;;;;;10.07;3.38;;;;;;;;;;5091740;28;20122;-89
2022/05/22 11:52:03;;;;;;;9.65;3.00;;;;;;;;;;5108713;28;20380;-89
2022/05/22 11:54:40;;;;;;;11.80;3.53;;;;;;;;;;5112692;28;20051;-88
2022/05/22 11:57:12;;;;;;;13.88;3.80;;;;;;;;;;5109884;28;20124;-91
2022/05/22 12:00:00;;;;;;;15.95;4.32;;;;;;;;;;5106345;28;20031;-88
2022/05/22 12:02:46;;;;;;;7.68;3.15;;;;;;;;;;5109306;28;20120;-89
2022/05/22 12:05:34;;;;;;;12.68;4.22;;;;;;;;;;5094851;28;21033;-89
2022/05/22 12:08:12;;;;;;;9.13;3.50;;;;;;;;;;5069728;28;20039;-84
2022/05/22 12:11:11;;;;;;;10.63;4.05;;;;;;;;;;5105349;28;20040;-85
2022/05/22 12:13:55;;;;;;;9.25;4.10;;;;;;;;;;5035917;28;20509;-90
2022/05/22 12:16:31;;;;;;;9.27;3.45;;;;;;;;;;5046976;28;20052;-90
2022/05/22 12:19:15;;;;;;;8.88;3.88;;;;;;;;;;5103940;28;20127;-91
2022/05/22 12:21:48;;;;;;;12.65;3.78;;;;;;;;;;5094557;27;20048;-89
2022/05/22 12:24:20;;;;;;;12.20;3.50;;;;;;;;;;5108330;27;20031;-87
2022/05/22 12:26:46;;;;;;;15.80;4.13;;;;;;;;;;5109695;27;20044;-86
2022/05/22 12:29:14;;;;;;;13.88;4.07;;;;;;;;;;5088759;28;20677;-92
2022/05/22 12:31:53;;;;;;;11.40;3.45;;;;;;;;;;5105229;28;20036;-91
2022/05/22 12:34:33;;;;;;;10.02;2.97;;;;;;;;;;5083291;28;20048;-87
2022/05/22 12:37:01;;;;;;;11.45;3.55;;;;;;;;;;5081891;28;20074;-84
2022/05/22 12:39:30;;;;;;;12.63;3.33;;;;;;;;;;5081135;28;20048;-84
2022/05/22 12:42:13;;;;;;;9.88;3.30;;;;;;;;;;5084164;28;20369;-82
2022/05/22 12:44:39;;;;;;;11.63;3.80;;;;;;;;;;5063208;28;20056;-89
2022/05/22 12:47:14;;;;;;;10.35;3.30;;;;;;;;;;5061071;28;20047;-91
2022/05/22 12:49:58;;;;;;;11.02;3.45;;;;;;;;;;5061441;28;20129;-91
2022/05/22 12:52:27;;;;;;;8.52;3.47;;;;;;;;;;5062009;28;20124;-87
2022/05/22 12:55:09;;;;;;;8.68;4.03;;;;;;;;;;5060633;28;20112;-89
2022/05/22 12:57:35;;;;;;;8.60;2.80;;;;;;;;;;5060843;28;20041;-85
2022/05/22 13:00:17;;;;;;;10.75;4.20;;;;;;;;;;5062865;28;20053;-90
2022/05/22 13:02:45;;;;;;;11.18;3.70;;;;;;;;;;5044061;28;20043;-89
2022/05/22 13:05:31;;;;;;;10.07;3.60;;;;;;;;;;5056200;28;20056;-87
2022/05/22 13:07:58;;;;;;;10.95;3.70;;;;;;;;;;5093189;28;20497;-85
2022/05/22 13:10:34;;;;;;;9.30;3.30;;;;;;;;;;5085394;28;20063;-84
2022/05/22 13:13:02;;;;;;;11.98;3.70;;;;;;;;;;5092718;28;20040;-86
2022/05/22 13:15:29;;;;;;;13.13;3.65;;;;;;;;;;5099956;28;20084;-86
2022/05/22 13:18:07;;;;;;;14.23;4.18;;;;;;;;;;5089151;28;20407;-86
2022/05/22 13:20:36;;;;;;;9.77;3.80;;;;;;;;;;5090748;28;20046;-86
2022/05/22 13:23:07;;;;;;;10.68;3.65;;;;;;;;;;5107174;28;20047;-85
2022/05/22 13:25:42;;;;;;;10.10;3.65;;;;;;;;;;5108508;28;20109;-82
2022/05/22 13:28:21;;;;;;;8.68;3.78;;;;;;;;;;5112953;28;20051;-86
2022/05/22 13:30:52;;;;;;;8.77;3.47;;;;;;;;;;5112582;28;20043;-83
2022/05/22 13:33:18;;;;;;;10.18;3.60;;;;;;;;;;5113030;28;20112;-88
2022/05/22 13:36:03;;;;;;;7.53;3.28;;;;;;;;;;5111854;28;20772;-86
2022/05/22 13:38:31;;;;;;;11.55;3.97;;;;;;;;;;5104458;28;20046;-87
2022/05/22 13:41:37;;;;;;;11.80;4.10;;;24.20;99.90;;;;;;5106933;28;20042;-85
2022/05/22 13:44:19;;;;;;;8.13;3.35;;;;;;;;;;5086895;28;20051;-90
2022/05/22 13:46:57;;;;;;;10.40;3.70;;;;;;;;;;5087501;28;20515;-89
2022/05/22 13:49:47;;;;;;;9.30;3.08;;;;;;;;;;5096421;28;20437;-86
2022/05/22 13:55:01;;;;;;;11.25;3.38;;;;;;;;;;5117355;28;20089;-83
2022/05/22 13:57:31;;;;;;;8.55;3.17;;;;;;;;;;5122019;28;20046;-87
2022/05/22 14:00:02;;;;;;;10.48;3.28;;;;;;;;;;5118485;28;20039;-83
2022/05/22 14:02:37;;;;;;;8.20;3.10;;;;;;;;;;5119477;28;20055;-85
2022/05/22 14:05:07;;;;;;;11.80;3.78;;;;;;;;;;5099828;28;20054;-87
2022/05/22 14:07:36;;;;;;;8.88;3.45;;;;;;;;;;5119451;28;20062;-85
2022/05/22 14:10:03;;;;;;;10.00;3.70;;;;;;;;;;5128518;28;20755;-82
2022/05/22 14:12:31;;;;;;;7.47;3.03;;;;;;;;;;5110557;28;20043;-83
2022/05/22 14:15:36;;;;;;;13.70;3.10;;;;;;;;;;5127231;28;20035;-81
2022/05/22 14:18:12;;;;;;;11.82;3.25;;;;;;;;;;5022319;28;20037;-84
2022/05/22 14:20:41;;;;;;;6.70;2.38;;;;;;;;;;5111719;28;20048;-82
2022/05/22 14:23:22;;;;;;;7.85;2.78;;;;;;;;;;5118563;28;20070;-84
2022/05/22 14:25:54;;;;;;;7.78;3.13;;;;;;;;;;5120868;28;20117;-82
2022/05/22 14:28:26;;;;;;;7.05;2.35;;;;;;;;;;5121955;28;20368;-84
2022/05/22 14:30:53;;;;;;;4.68;2.55;;;;;;;;;;5120228;27;20039;-83
2022/05/22 14:33:23;;;;;;;8.60;2.78;;;;;;;;;;5120764;27;20126;-85
2022/05/22 14:35:52;;;;;;;10.45;3.40;;;;;;;;;;5118944;27;20039;-84
2022/05/22 14:38:23;;;;;;;9.63;2.92;;;;;;;;;;5119689;28;20043;-85
2022/05/22 14:40:53;;;;;;;9.15;3.10;;;;;;;;;;5117597;28;20052;-83
2022/05/22 14:43:21;;;;;;;4.18;1.67;;;;;;;;;;5120058;27;20055;-84
2022/05/22 14:45:49;;;;;;;6.88;2.13;;;;;;;;;;5117239;27;20043;-81
2022/05/22 14:48:18;;;;;;;8.23;2.17;;;;;;;;;;5119091;28;20067;-82
2022/05/22 14:50:46;;;;;;;10.90;2.50;;;;;;;;;;5117603;27;20044;-84
2022/05/22 14:53:14;;;;;;;7.65;2.58;;;;;;;;;;5120314;27;20036;-81
2022/05/22 14:55:45;;;;;;;11.95;2.72;;;;;;;;;;5118944;27;20047;-85
2022/05/22 14:58:16;;;;;;;9.32;2.85;;;;;;;;;;5119689;27;20556;-84
2022/05/22 15:00:49;;;;;;;6.85;2.08;;;;;;;;;;5118053;28;20050;-83
2022/05/22 15:03:20;;;;;;;8.05;1.90;;;;;;;;;;5118980;28;20132;-82
2022/05/22 15:05:51;;;;;;;5.93;2.08;;;;;;;;;;5118762;28;20124;-84